Time;durP1;ratioP1;P1;durP2;ratioP2;P2;SDS_P1;SDS_P2;PMS_P1;PMS_P2;Temp;Humidity;BMP_temperature;BMP_pressure;BME280_temperature;BME280_humidity;BME280_pressure;Samples;Min_cycle;Max_cycle;Signal;HPM_P1;HPM_P2
2022/04/23 00:00:15;;;;;;;;;;;;;;;4.04;76.67;99940.05;85892;1332;23162;-81
2022/04/23 00:02:42;;;;;;;;;;;;;;;4.15;76.51;99939.86;85833;1335;22941;-81
2022/04/23 00:04:49;;;;;;;;;;;;;;;4.23;76.22;99935.56;85789;1335;23204;-74
2022/04/23 00:06:54;;;;;;;;;;;;;;;4.31;76.06;99932.98;85900;1332;22502;-75
2022/04/23 00:09:00;;;;;;;;;;;;;;;4.37;75.98;99930.10;85877;1331;23241;-75
2022/04/23 00:11:04;;;;;;;;;;;;;;;4.43;75.86;99927.92;85840;1336;22460;-75
2022/04/23 00:13:09;;;;;;;;;;;;;;;4.49;75.64;99922.46;85898;1336;23132;-75
2022/04/23 00:15:17;;;;;;;;;;;;;;;4.52;75.42;99922.02;85836;1334;22610;-81
2022/04/23 00:17:25;;;;;;;;;;;;;;;4.55;75.73;99922.48;85821;1333;22512;-81
2022/04/23 00:19:33;;;;;;;;;;;;;;;4.59;75.40;99920.50;85841;1333;23250;-81
2022/04/23 00:21:38;;;;;;;;;;;;;;;4.64;75.19;99916.78;85886;1331;23653;-81
2022/04/23 00:23:47;;;;;;;;;;;;;;;4.65;75.07;99911.59;85885;1330;22559;-75
2022/04/23 00:25:55;;;;;;;;;;;;;;;4.67;75.15;99905.99;85884;1331;23053;-74
2022/04/23 00:28:03;;;;;;;;;;;;;;;4.68;74.98;99903.57;84484;1330;1002622;-75
2022/04/23 00:30:12;;;;;;;;;;;;;;;4.70;74.93;99903.70;85707;1335;23168;-75
2022/04/23 00:32:17;;;;;;;;;;;;;;;4.70;75.06;99903.17;85819;1335;23604;-75
2022/04/23 00:34:25;;;;;;;;;;;;;;;4.69;75.00;99895.77;85847;1336;23025;-75
2022/04/23 00:36:30;;;;;;;;;;;;;;;4.69;74.90;99892.67;85826;1335;23160;-75
2022/04/23 00:38:39;;;;;;;;;;;;;;;4.68;74.77;99894.93;85838;1335;22471;-81
2022/04/23 00:40:46;;;;;;;;;;;;;;;4.68;74.86;99899.59;85107;1337;1002197;-81
2022/04/23 00:42:52;;;;;;;;;;;;;;;4.70;74.83;99898.86;85831;1338;22461;-81
2022/04/23 00:44:57;;;;;;;;;;;;;;;4.71;74.97;99896.05;85895;1333;22481;-81
2022/04/23 00:47:02;;;;;;;;;;;;;;;4.69;74.79;99892.15;85771;1335;22582;-81
2022/04/23 00:49:06;;;;;;;;;;;;;;;4.68;74.63;99891.64;85882;1330;22924;-75
2022/04/23 00:51:13;;;;;;;;;;;;;;;4.69;74.85;99884.56;85782;1334;23115;-75
2022/04/23 00:53:19;;;;;;;;;;;;;;;4.69;74.64;99884.56;85882;1334;22480;-80
2022/04/23 00:55:24;;;;;;;;;;;;;;;4.68;74.84;99883.86;85894;1335;22475;-75
2022/04/23 00:57:32;;;;;;;;;;;;;;;4.69;74.77;99880.42;85828;1336;23059;-75
2022/04/23 00:59:37;;;;;;;;;;;;;;;4.68;74.79;99879.89;85876;1331;23235;-75
2022/04/23 01:01:42;;;;;;;;;;;;;;;4.69;74.85;99877.48;85878;1335;23025;-75
2022/04/23 01:03:48;;;;;;;;;;;;;;;4.69;75.06;99877.47;85831;1336;23070;-75
2022/04/23 01:05:55;;;;;;;;;;;;;;;4.69;74.94;99872.11;85898;1336;23152;-75
2022/04/23 01:08:02;;;;;;;;;;;;;;;4.69;75.15;99868.99;85810;1333;22645;-75
2022/04/23 01:10:10;;;;;;;;;;;;;;;4.69;75.07;99863.81;85877;1332;22492;-81
2022/04/23 01:12:17;;;;;;;;;;;;;;;4.69;75.38;99859.84;85832;1335;22508;-81
2022/04/23 01:14:22;;;;;;;;;;;;;;;4.71;75.50;99860.48;85877;1332;22480;-75
2022/04/23 01:16:27;;;;;;;;;;;;;;;4.71;75.38;99857.19;85893;1333;23145;-75
2022/04/23 01:18:31;;;;;;;;;;;;;;;4.73;75.33;99856.64;85881;1335;23091;-81
2022/04/23 01:20:39;;;;;;;;;;;;;;;4.74;75.22;99854.89;85831;1335;23134;-82
2022/04/23 01:22:44;;;;;;;;;;;;;;;4.75;75.29;99857.10;85815;1336;23124;-81
2022/04/23 01:24:50;;;;;;;;;;;;;;;4.76;75.30;99851.90;85825;1334;23070;-75
2022/04/23 01:26:55;;;;;;;;;;;;;;;4.75;75.42;99850.37;85940;1332;22603;-75
2022/04/23 01:29:00;;;;;;;;;;;;;;;4.73;75.11;99851.09;85936;1335;23292;-81
2022/04/23 01:31:05;;;;;;;;;;;;;;;4.70;75.20;99847.54;85886;1336;22567;-81
2022/04/23 01:33:10;;;;;;;;;;;;;;;4.65;74.89;99846.95;85765;1335;22479;-81
2022/04/23 01:35:14;;;;;;;;;;;;;;;4.62;75.10;99846.32;85946;1332;23117;-75
2022/04/23 01:37:19;;;;;;;;;;;;;;;4.60;74.90;99848.95;85856;1332;23026;-75
2022/04/23 01:39:24;;;;;;;;;;;;;;;4.59;75.22;99846.41;85940;1332;22424;-81
2022/04/23 01:41:31;;;;;;;;;;;;;;;4.60;75.29;99843.80;85931;1335;22567;-81
2022/04/23 01:43:36;;;;;;;;;;;;;;;4.62;75.34;99837.86;85938;1332;23135;-81
2022/04/23 01:45:40;;;;;;;;;;;;;;;4.64;75.29;99833.50;85875;1332;23312;-81
2022/04/23 01:47:45;;;;;;;;;;;;;;;4.68;75.62;99827.19;85866;1333;22495;-82
2022/04/23 01:49:50;;;;;;;;;;;;;;;4.74;75.47;99825.84;85946;1332;22431;-75
2022/04/23 01:51:55;;;;;;;;;;;;;;;4.80;75.38;99822.77;85902;1335;22459;-74
2022/04/23 01:53:59;;;;;;;;;;;;;;;4.82;75.44;99819.44;85884;1336;23194;-75
2022/04/23 01:56:04;;;;;;;;;;;;;;;4.85;75.30;99820.93;85890;1334;22486;-75
2022/04/23 01:58:08;;;;;;;;;;;;;;;4.90;75.48;99815.48;85885;1333;22525;-75
2022/04/23 02:00:14;;;;;;;;;;;;;;;4.92;75.35;99815.40;85887;1332;23143;-81
2022/04/23 02:02:19;;;;;;;;;;;;;;;4.94;75.46;99811.05;85881;1331;23032;-81
2022/04/23 02:04:25;;;;;;;;;;;;;;;4.93;75.22;99809.52;85898;1331;23119;-75
2022/04/23 02:06:30;;;;;;;;;;;;;;;4.91;75.36;99807.98;85941;1332;22455;-74
2022/04/23 02:08:38;;;;;;;;;;;;;;;4.90;75.16;99811.65;85952;1333;22427;-75
2022/04/23 02:10:47;;;;;;;;;;;;;;;4.89;75.34;99813.57;85936;1332;23162;-75
2022/04/23 02:12:52;;;;;;;;;;;;;;;4.88;75.20;99807.38;85953;1332;22468;-74
2022/04/23 02:14:57;;;;;;;;;;;;;;;4.88;75.38;99807.73;85967;1331;22443;-75
2022/04/23 02:17:05;;;;;;;;;;;;;;;4.89;75.44;99804.95;85965;1335;22604;-74
2022/04/23 02:19:13;;;;;;;;;;;;;;;4.89;75.69;99799.92;85963;1333;22464;-74
2022/04/23 02:21:18;;;;;;;;;;;;;;;4.90;75.60;99795.74;85969;1331;22459;-75
2022/04/23 02:23:25;;;;;;;;;;;;;;;4.91;75.66;99803.83;85975;1331;23307;-80
2022/04/23 02:25:31;;;;;;;;;;;;;;;4.92;75.42;99802.41;85953;1332;23122;-81
2022/04/23 02:27:42;;;;;;;;;;;;;;;4.91;75.73;99802.27;85966;1332;23275;-81
2022/04/23 02:29:50;;;;;;;;;;;;;;;4.88;75.44;99804.42;85964;1335;22459;-75
2022/04/23 02:31:57;;;;;;;;;;;;;;;4.83;75.39;99805.42;85975;1327;22684;-75
2022/04/23 02:34:05;;;;;;;;;;;;;;;4.76;75.45;99807.15;85967;1332;22569;-75
2022/04/23 02:36:15;;;;;;;;;;;;;;;4.68;75.20;99804.73;85816;1338;22502;-75
2022/04/23 02:38:19;;;;;;;;;;;;;;;4.61;75.17;99806.63;85979;1334;22590;-75
2022/04/23 02:40:24;;;;;;;;;;;;;;;4.55;75.27;99805.39;85914;1332;23207;-75
2022/04/23 02:42:31;;;;;;;;;;;;;;;4.48;75.17;99807.95;85921;1332;23215;-75
2022/04/23 02:44:36;;;;;;;;;;;;;;;4.41;75.46;99808.61;85928;1329;22548;-81
2022/04/23 02:46:41;;;;;;;;;;;;;;;4.34;75.38;99810.52;85989;1332;22851;-81
2022/04/23 02:48:45;;;;;;;;;;;;;;;4.26;75.49;99816.02;85985;1331;23093;-81
2022/04/23 02:50:50;;;;;;;;;;;;;;;4.16;75.56;99815.55;85978;1333;22439;-81
2022/04/23 02:52:55;;;;;;;;;;;;;;;4.07;75.42;99819.34;85987;1335;22439;-81
2022/04/23 02:55:05;;;;;;;;;;;;;;;3.99;75.40;99817.45;85988;1333;22435;-75
2022/04/23 02:57:12;;;;;;;;;;;;;;;3.92;75.50;99817.92;85977;1335;22482;-74
2022/04/23 02:59:17;;;;;;;;;;;;;;;3.88;75.80;99816.44;85835;1332;23010;-74
2022/04/23 03:01:22;;;;;;;;;;;;;;;3.88;76.27;99813.86;85925;1332;22544;-74
2022/04/23 03:03:26;;;;;;;;;;;;;;;3.88;76.36;99817.48;85988;1335;22506;-81
2022/04/23 03:05:31;;;;;;;;;;;;;;;3.89;76.46;99815.73;85991;1332;22498;-81
2022/04/23 03:07:36;;;;;;;;;;;;;;;3.91;76.49;99811.73;85816;1333;23152;-81
2022/04/23 03:09:41;;;;;;;;;;;;;;;3.94;76.89;99813.91;85912;1331;22470;-74
2022/04/23 03:11:47;;;;;;;;;;;;;;;3.99;77.03;99806.58;85980;1332;22472;-74
2022/04/23 03:13:52;;;;;;;;;;;;;;;4.04;77.24;99802.33;85991;1335;23026;-75
2022/04/23 03:15:59;;;;;;;;;;;;;;;4.08;77.34;99805.52;85965;1331;23171;-74
2022/04/23 03:18:05;;;;;;;;;;;;;;;4.14;77.10;99805.91;85965;1332;23254;-75
2022/04/23 03:20:14;;;;;;;;;;;;;;;4.20;77.22;99803.55;85979;1332;23126;-80
2022/04/23 03:22:21;;;;;;;;;;;;;;;4.23;77.16;99804.34;85887;1332;23110;-80
2022/04/23 03:24:29;;;;;;;;;;;;;;;4.28;77.48;99803.02;85917;1332;22517;-75
2022/04/23 03:26:36;;;;;;;;;;;;;;;4.33;77.56;99800.85;83818;1335;1003294;-74
2022/04/23 03:28:41;;;;;;;;;;;;;;;4.35;77.62;99800.46;85814;1337;23002;-81
2022/04/23 03:30:46;;;;;;;;;;;;;;;4.36;77.53;99802.00;85967;1332;23032;-81
2022/04/23 03:32:54;;;;;;;;;;;;;;;4.37;77.30;99804.73;85804;1336;23002;-81
2022/04/23 03:35:02;;;;;;;;;;;;;;;4.38;77.43;99808.00;85973;1332;23286;-75
2022/04/23 03:37:10;;;;;;;;;;;;;;;4.39;77.16;99810.75;85899;1334;23149;-74
2022/04/23 03:39:15;;;;;;;;;;;;;;;4.38;77.31;99815.23;85987;1334;22533;-81
2022/04/23 03:41:23;;;;;;;;;;;;;;;4.37;77.10;99816.81;85775;1335;23106;-81
2022/04/23 03:43:28;;;;;;;;;;;;;;;4.35;77.22;99813.08;85901;1336;23573;-74
2022/04/23 03:45:33;;;;;;;;;;;;;;;4.32;77.15;99812.24;85892;1336;22604;-74
2022/04/23 03:47:45;;;;;;;;;;;;;;;4.31;77.18;99811.96;85787;1335;23179;-75
2022/04/23 03:49:53;;;;;;;;;;;;;;;4.31;77.40;99811.27;85905;1332;23076;-75
2022/04/23 03:52:00;;;;;;;;;;;;;;;4.30;77.26;99815.77;85975;1331;23288;-74
2022/04/23 03:54:09;;;;;;;;;;;;;;;4.29;77.48;99815.63;85979;1332;22438;-74
2022/04/23 03:56:13;;;;;;;;;;;;;;;4.29;77.20;99818.23;85969;1335;23064;-75
2022/04/23 03:58:19;;;;;;;;;;;;;;;4.27;77.42;99822.20;85814;1336;22555;-80
2022/04/23 04:00:28;;;;;;;;;;;;;;;4.27;77.73;99822.20;85810;1335;23199;-74
2022/04/23 04:02:35;;;;;;;;;;;;;;;4.26;77.73;99819.30;85975;1331;22534;-74
2022/04/23 04:04:41;;;;;;;;;;;;;;;4.26;77.90;99820.69;85814;1334;23126;-74
2022/04/23 04:06:46;;;;;;;;;;;;;;;4.25;77.70;99823.48;85900;1335;23134;-74
2022/04/23 04:08:50;;;;;;;;;;;;;;;4.23;77.86;99819.90;85983;1335;23188;-81
2022/04/23 04:10:55;;;;;;;;;;;;;;;4.20;77.71;99817.02;85967;1331;22601;-81
2022/04/23 04:12:59;;;;;;;;;;;;;;;4.16;77.62;99818.65;85970;1335;22494;-81
2022/04/23 04:15:06;;;;;;;;;;;;;;;4.13;77.76;99820.60;85974;1332;22572;-75
2022/04/23 04:17:15;;;;;;;;;;;;;;;4.12;77.77;99817.18;85769;1335;22650;-74
2022/04/23 04:19:23;;;;;;;;;;;;;;;4.11;77.76;99821.50;85907;1332;23075;-81
2022/04/23 04:21:27;;;;;;;;;;;;;;;4.08;77.81;99816.55;85992;1331;23082;-81
2022/04/23 04:23:32;;;;;;;;;;;;;;;4.05;77.91;99819.21;85987;1332;22640;-75
2022/04/23 04:25:39;;;;;;;;;;;;;;;4.04;78.10;99821.99;85985;1332;22480;-74
2022/04/23 04:27:44;;;;;;;;;;;;;;;4.05;78.62;99821.64;85258;1332;1002234;-75
2022/04/23 04:29:48;;;;;;;;;;;;;;;4.06;78.24;99823.52;85987;1325;22499;-74
2022/04/23 04:31:56;;;;;;;;;;;;;;;4.10;78.47;99821.20;85966;1335;23116;-74
2022/04/23 04:34:04;;;;;;;;;;;;;;;4.17;78.49;99817.25;85960;1331;22493;-80
2022/04/23 04:36:08;;;;;;;;;;;;;;;4.27;78.36;99819.80;85974;1332;23768;-80
2022/04/23 04:38:13;;;;;;;;;;;;;;;4.38;78.67;99818.52;85971;1335;23333;-81
2022/04/23 04:40:18;;;;;;;;;;;;;;;4.51;78.66;99817.73;85971;1332;22472;-74
2022/04/23 04:42:23;;;;;;;;;;;;;;;4.62;78.50;99813.32;85879;1333;22581;-74
2022/04/23 04:44:28;;;;;;;;;;;;;;;4.76;78.68;99815.26;85977;1332;23211;-81
2022/04/23 04:46:36;;;;;;;;;;;;;;;4.89;78.07;99812.52;85966;1327;22775;-74
2022/04/23 04:48:46;;;;;;;;;;;;;;;5.01;78.06;99815.89;85978;1330;22483;-73
2022/04/23 04:50:53;;;;;;;;;;;;;;;5.14;77.70;99816.09;85965;1332;22552;-74
2022/04/23 04:53:00;;;;;;;;;;;;;;;5.23;77.45;99816.03;85973;1333;23241;-75
2022/04/23 04:55:06;;;;;;;;;;;;;;;5.32;77.57;99820.13;85962;1335;22546;-81
2022/04/23 04:57:14;;;;;;;;;;;;;;;5.41;77.03;99820.92;85974;1332;23249;-81
2022/04/23 04:59:20;;;;;;;;;;;;;;;5.50;76.91;99817.25;85977;1335;22497;-81
2022/04/23 05:01:25;;;;;;;;;;;;;;;5.58;76.87;99817.38;85971;1331;22551;-81
2022/04/23 05:03:30;;;;;;;;;;;;;;;5.67;76.47;99816.98;85667;1334;284862;-74
2022/04/23 05:05:35;;;;;;;;;;;;;;;5.81;76.60;99814.52;85955;1327;22459;-74
2022/04/23 05:07:39;;;;;;;;;;;;;;;5.98;76.80;99807.83;85971;1331;22534;-74
2022/04/23 05:09:44;;;;;;;;;;;;;;;6.12;76.45;99809.49;85772;1335;23289;-75
2022/04/23 05:11:49;;;;;;;;;;;;;;;6.21;75.99;99810.27;85785;1333;22460;-75
2022/04/23 05:13:57;;;;;;;;;;;;;;;6.28;75.66;99813.91;85884;1331;22466;-75
2022/04/23 05:16:07;;;;;;;;;;;;;;;6.33;75.47;99815.48;85768;1334;23071;-74
2022/04/23 05:18:11;;;;;;;;;;;;;;;6.39;75.35;99816.35;85964;1333;23150;-74
2022/04/23 05:20:19;;;;;;;;;;;;;;;6.43;75.12;99819.33;85990;1332;23213;-81
2022/04/23 05:22:23;;;;;;;;;;;;;;;6.49;75.11;99821.43;85970;1332;23298;-81
2022/04/23 05:24:28;;;;;;;;;;;;;;;6.52;74.99;99821.48;85977;1335;22482;-81
2022/04/23 05:26:34;;;;;;;;;;;;;;;6.57;74.63;99824.98;85966;1334;22565;-81
2022/04/23 05:28:41;;;;;;;;;;;;;;;6.58;74.23;99823.04;85968;1333;22447;-81
2022/04/23 05:30:46;;;;;;;;;;;;;;;6.58;74.02;99820.44;85979;1326;22448;-81
2022/04/23 05:32:54;;;;;;;;;;;;;;;6.58;74.19;99824.41;85896;1335;22482;-81
2022/04/23 05:34:59;;;;;;;;;;;;;;;6.61;74.31;99818.45;85977;1333;23131;-74
2022/04/23 05:37:04;;;;;;;;;;;;;;;6.67;74.31;99820.67;85968;1335;22681;-75
2022/04/23 05:39:09;;;;;;;;;;;;;;;6.75;74.35;99820.10;85966;1332;23173;-81
2022/04/23 05:41:17;;;;;;;;;;;;;;;6.83;74.21;99818.80;85981;1327;22491;-82
2022/04/23 05:43:22;;;;;;;;;;;;;;;6.91;74.22;99820.63;85968;1333;23039;-75
2022/04/23 05:45:27;;;;;;;;;;;;;;;7.01;74.14;99815.65;85971;1334;23032;-76
2022/04/23 05:47:32;;;;;;;;;;;;;;;7.14;74.33;99812.77;85977;1332;22544;-75
2022/04/23 05:49:39;;;;;;;;;;;;;;;7.37;74.69;99811.14;85978;1334;22607;-75
2022/04/23 05:51:44;;;;;;;;;;;;;;;7.69;75.09;99809.86;85969;1332;22466;-74
2022/04/23 05:53:49;;;;;;;;;;;;;;;8.34;78.11;99804.70;85817;1336;22464;-82
2022/04/23 05:55:56;;;;;;;;;;;;;;;9.98;80.91;99803.54;85804;1337;23109;-82
2022/04/23 05:58:01;;;;;;;;;;;;;;;11.12;73.51;99804.15;85898;1327;22542;-81
2022/04/23 06:00:08;;;;;;;;;;;;;;;11.91;69.86;99804.56;85873;1336;23033;-75
2022/04/23 06:02:13;;;;;;;;;;;;;;;12.17;66.44;99803.30;85967;1330;23126;-75
2022/04/23 06:04:19;;;;;;;;;;;;;;;12.22;64.58;99799.39;85976;1335;22487;-82
2022/04/23 06:06:24;;;;;;;;;;;;;;;12.17;63.88;99801.41;85968;1332;23080;-82
2022/04/23 06:08:29;;;;;;;;;;;;;;;12.11;63.17;99799.08;85973;1333;22483;-75
2022/04/23 06:10:34;;;;;;;;;;;;;;;12.05;63.10;99792.23;85984;1335;22593;-75
2022/04/23 06:12:39;;;;;;;;;;;;;;;11.88;61.94;99796.45;85970;1334;22425;-77
2022/04/23 06:14:44;;;;;;;;;;;;;;;11.67;62.40;99795.27;85974;1332;23165;-76
2022/04/23 06:16:52;;;;;;;;;;;;;;;11.52;62.38;99795.67;85956;1333;22543;-76
2022/04/23 06:19:01;;;;;;;;;;;;;;;11.41;62.68;99796.24;85983;1333;23114;-83
2022/04/23 06:21:07;;;;;;;;;;;;;;;11.46;62.78;99797.92;85959;1332;23124;-74
2022/04/23 06:23:12;;;;;;;;;;;;;;;11.69;63.27;99796.55;85822;1336;22658;-75
2022/04/23 06:25:17;;;;;;;;;;;;;;;12.18;63.37;99792.09;85811;1334;23061;-75
2022/04/23 06:27:21;;;;;;;;;;;;;;;12.76;62.17;99785.58;85889;1333;23395;-76
2022/04/23 06:29:29;;;;;;;;;;;;;;;13.41;61.16;99784.80;85912;1332;22688;-75
2022/04/23 06:31:34;;;;;;;;;;;;;;;13.83;59.75;99780.75;85955;1332;23047;-75
2022/04/23 06:33:38;;;;;;;;;;;;;;;13.93;58.49;99780.95;85902;1333;22535;-76
2022/04/23 06:35:43;;;;;;;;;;;;;;;13.81;57.26;99779.80;85967;1334;22598;-76
2022/04/23 06:37:48;;;;;;;;;;;;;;;13.53;56.91;99783.91;85975;1333;22581;-75
2022/04/23 06:39:53;;;;;;;;;;;;;;;13.28;56.93;99787.86;85988;1335;22544;-84
2022/04/23 06:41:58;;;;;;;;;;;;;;;13.15;57.19;99786.97;85973;1332;23097;-83
2022/04/23 06:44:03;;;;;;;;;;;;;;;13.12;57.44;99785.06;85976;1332;23128;-74
2022/04/23 06:46:08;;;;;;;;;;;;;;;13.27;57.63;99782.80;85966;1332;22565;-75
2022/04/23 06:48:23;;;;;;;;;;;;;;;13.42;57.00;99783.34;85971;1332;22520;-75
2022/04/23 06:50:32;;;;;;;;;;;;;;;13.48;55.95;99784.92;85982;1332;22468;-83
2022/04/23 06:52:41;;;;;;;;;;;;;;;13.49;56.46;99785.39;85980;1332;22447;-82
2022/04/23 06:54:46;;;;;;;;;;;;;;;13.72;56.33;99786.48;85969;1332;23107;-75
2022/04/23 06:56:58;;;;;;;;;;;;;;;13.73;55.62;99790.61;85783;1336;22526;-75
2022/04/23 06:59:09;;;;;;;;;;;;;;;13.60;54.75;99786.30;85972;1332;23085;-87
2022/04/23 07:01:15;;;;;;;;;;;;;;;13.39;54.69;99789.16;85812;1337;22434;-82
2022/04/23 07:03:20;;;;;;;;;;;;;;;13.20;55.12;99792.14;85933;1335;22491;-81
2022/04/23 07:05:25;;;;;;;;;;;;;;;13.02;55.19;99794.59;85899;1336;23302;-82
2022/04/23 07:07:33;;;;;;;;;;;;;;;12.78;55.22;99790.16;85963;1331;23072;-81
2022/04/23 07:09:40;;;;;;;;;;;;;;;12.53;55.33;99792.09;85818;1337;23175;-75
2022/04/23 07:11:48;;;;;;;;;;;;;;;12.31;56.03;99790.48;85887;1333;22477;-76
2022/04/23 07:13:53;;;;;;;;;;;;;;;12.13;56.38;99792.70;85964;1335;23191;-80
2022/04/23 07:15:58;;;;;;;;;;;;;;;11.91;56.57;99793.20;85960;1327;22443;-81
2022/04/23 07:18:03;;;;;;;;;;;;;;;11.73;57.09;99792.89;85820;1335;22543;-80
2022/04/23 07:20:12;;;;;;;;;;;;;;;11.64;57.79;99791.42;85891;1333;22501;-76
2022/04/23 07:22:17;;;;;;;;;;;;;;;11.57;57.91;99785.81;85958;1335;22494;-76
2022/04/23 07:24:21;;;;;;;;;;;;;;;11.55;58.08;99784.86;85973;1333;23346;-76
2022/04/23 07:26:29;;;;;;;;;;;;;;;11.57;58.31;99782.13;85895;1336;22464;-76
2022/04/23 07:28:35;;;;;;;;;;;;;;;11.69;58.41;99782.92;85964;1335;22475;-76
2022/04/23 07:30:39;;;;;;;;;;;;;;;11.77;58.50;99781.84;85899;1333;22559;-75
2022/04/23 07:32:44;;;;;;;;;;;;;;;11.80;58.23;99780.58;85979;1334;22467;-83
2022/04/23 07:37:31;;;;;;;;;;;;;;;11.74;58.36;99780.08;85970;1332;22580;-81
2022/04/23 07:39:37;;;;;;;;;;;;;;;11.61;58.35;99777.77;85811;1333;22710;-75
2022/04/23 07:41:43;;;;;;;;;;;;;;;11.51;58.54;99777.22;85887;1332;22475;-74
2022/04/23 07:43:51;;;;;;;;;;;;;;;11.41;58.40;99778.45;85232;1335;1002551;-74
2022/04/23 07:45:59;;;;;;;;;;;;;;;11.27;58.61;99777.41;85783;1337;23112;-74
2022/04/23 07:48:07;;;;;;;;;;;;;;;11.10;58.42;99773.88;85796;1334;22556;-75
2022/04/23 07:50:13;;;;;;;;;;;;;;;10.96;59.10;99775.98;85811;1334;22511;-81
2022/04/23 07:52:18;;;;;;;;;;;;;;;10.87;59.42;99773.79;85893;1331;23315;-80
2022/04/23 07:54:23;;;;;;;;;;;;;;;10.81;59.62;99770.58;85984;1335;23206;-81
2022/04/23 07:56:27;;;;;;;;;;;;;;;10.78;59.94;99771.77;85978;1335;23062;-81
2022/04/23 07:58:33;;;;;;;;;;;;;;;10.80;60.24;99770.46;85809;1335;22547;-80
2022/04/23 08:00:42;;;;;;;;;;;;;;;10.79;60.52;99771.58;85779;1335;22499;-81
2022/04/23 08:02:49;;;;;;;;;;;;;;;10.73;60.89;99770.11;85978;1335;22502;-81
2022/04/23 08:04:54;;;;;;;;;;;;;;;10.68;61.26;99769.33;85977;1332;23241;-81
2022/04/23 08:07:03;;;;;;;;;;;;;;;10.60;61.52;99767.58;85889;1333;23635;-75
2022/04/23 08:09:09;;;;;;;;;;;;;;;10.54;61.92;99767.34;85886;1336;23311;-75
2022/04/23 08:11:14;;;;;;;;;;;;;;;10.49;62.05;99765.66;85837;1335;23165;-76
2022/04/23 08:13:24;;;;;;;;;;;;;;;10.45;62.28;99767.08;85884;1335;22526;-79
2022/04/23 08:15:34;;;;;;;;;;;;;;;10.44;62.34;99768.70;85981;1333;22537;-82
2022/04/23 08:17:41;;;;;;;;;;;;;;;10.44;62.45;99768.02;85969;1335;22603;-81
2022/04/23 08:19:49;;;;;;;;;;;;;;;10.45;62.53;99770.07;85894;1336;22502;-75
2022/04/23 08:21:54;;;;;;;;;;;;;;;10.43;62.29;99767.70;85802;1335;22472;-75
2022/04/23 08:24:02;;;;;;;;;;;;;;;10.43;62.39;99764.05;85874;1332;22522;-81
2022/04/23 08:26:07;;;;;;;;;;;;;;;10.49;62.79;99763.42;85968;1333;22583;-81
2022/04/23 08:30:39;;;;;;;;;;;;;;;10.68;62.64;99763.18;85970;1335;22559;-81
2022/04/23 08:32:44;;;;;;;;;;;;;;;10.71;62.28;99766.20;85910;1336;22478;-81
2022/04/23 08:34:49;;;;;;;;;;;;;;;10.70;62.14;99762.23;85806;1334;22464;-75
2022/04/23 08:36:57;;;;;;;;;;;;;;;10.65;61.87;99763.19;85912;1332;22579;-76
2022/04/23 08:39:02;;;;;;;;;;;;;;;10.59;62.00;99763.29;85882;1335;23055;-75
2022/04/23 08:41:07;;;;;;;;;;;;;;;10.53;61.99;99766.01;85906;1333;22575;-75
2022/04/23 08:43:18;;;;;;;;;;;;;;;10.45;62.02;99766.58;85968;1335;22478;-75
2022/04/23 08:45:31;;;;;;;;;;;;;;;10.40;62.13;99768.02;85972;1335;23212;-81
2022/04/23 08:47:36;;;;;;;;;;;;;;;10.30;62.08;99768.49;85971;1335;23158;-81
2022/04/23 08:49:42;;;;;;;;;;;;;;;10.24;62.32;99767.36;85953;1335;22545;-75
2022/04/23 08:51:52;;;;;;;;;;;;;;;10.16;62.24;99766.31;85972;1335;22472;-75
2022/04/23 08:53:56;;;;;;;;;;;;;;;10.09;62.52;99761.23;85975;1335;22993;-80
2022/04/23 08:56:13;;;;;;;;;;;;;;;10.02;62.68;99763.83;85898;1335;22436;-76
2022/04/23 08:58:57;;;;;;;;;;;;;;;9.92;62.70;99761.84;85959;1335;22576;-75
2022/04/23 09:01:04;;;;;;;;;;;;;;;9.86;62.99;99756.55;85797;1337;22496;-77
2022/04/23 09:03:16;;;;;;;;;;;;;;;9.84;63.16;99755.38;85968;1335;23258;-75
2022/04/23 09:05:33;;;;;;;;;;;;;;;9.87;63.45;99752.47;85892;1336;22633;-75
2022/04/23 09:07:38;;;;;;;;;;;;;;;9.93;63.61;99753.59;85884;1335;23190;-77
2022/04/23 09:09:48;;;;;;;;;;;;;;;10.01;63.76;99754.98;85969;1335;22540;-77
2022/04/23 09:11:57;;;;;;;;;;;;;;;10.10;63.75;99757.70;85892;1336;23128;-76
2022/04/23 09:14:06;;;;;;;;;;;;;;;10.20;63.43;99758.10;85963;1335;22599;-86
2022/04/23 09:23:41;;;;;;;;;;;;;;;11.05;63.16;99743.80;85596;1338;23221;-83
2022/04/23 09:25:49;;;;;;;;;;;;;;;11.33;62.53;99743.23;85960;1335;23099;-81
2022/04/23 09:27:58;;;;;;;;;;;;;;;11.59;61.72;99742.76;85955;1335;22483;-78
2022/04/23 09:30:08;;;;;;;;;;;;;;;11.86;61.27;99734.88;85965;1335;22416;-76
2022/04/23 09:32:17;;;;;;;;;;;;;;;12.16;60.99;99738.70;85895;1336;22565;-76
2022/04/23 09:34:23;;;;;;;;;;;;;;;12.43;60.38;99733.50;85960;1335;23142;-79
2022/04/23 09:36:49;;;;;;;;;;;;;;;12.64;59.64;99732.70;85977;1335;23049;-78
2022/04/23 09:39:02;;;;;;;;;;;;;;;12.74;58.78;99736.30;85978;1335;23134;-76
2022/04/23 09:41:16;;;;;;;;;;;;;;;12.78;58.26;99732.25;85957;1335;22512;-76
2022/04/23 09:43:29;;;;;;;;;;;;;;;12.86;58.31;99732.13;85975;1335;22542;-78
2022/04/23 09:45:42;;;;;;;;;;;;;;;13.00;57.56;99730.26;85780;1335;23209;-77
2022/04/23 09:47:46;;;;;;;;;;;;;;;13.04;57.17;99727.79;85963;1335;22616;-76
2022/04/23 09:49:59;;;;;;;;;;;;;;;13.06;57.18;99729.39;85969;1335;22480;-76
2022/04/23 09:52:06;;;;;;;;;;;;;;;13.13;56.93;99727.77;85871;1336;23262;-76
2022/04/23 09:54:15;;;;;;;;;;;;;;;13.18;56.66;99729.38;85902;1336;22510;-75
2022/04/23 09:56:27;;;;;;;;;;;;;;;13.21;56.06;99727.31;85979;1335;22494;-74
2022/04/23 09:58:35;;;;;;;;;;;;;;;13.15;55.91;99723.95;85966;1335;22500;-78
2022/04/23 10:00:43;;;;;;;;;;;;;;;13.12;55.79;99722.41;85970;1334;23139;-80
2022/04/23 10:02:51;;;;;;;;;;;;;;;13.07;55.59;99728.48;85964;1335;22493;-86
2022/04/23 10:04:56;;;;;;;;;;;;;;;12.99;55.47;99726.10;85977;1335;23175;-86
2022/04/23 10:07:02;;;;;;;;;;;;;;;12.92;55.76;99723.73;85902;1336;22488;-84
2022/04/23 10:09:10;;;;;;;;;;;;;;;12.93;56.13;99727.90;85973;1332;22438;-85
2022/04/23 10:11:17;;;;;;;;;;;;;;;12.91;55.74;99729.04;85829;1338;23158;-86
2022/04/23 10:13:23;;;;;;;;;;;;;;;12.88;55.43;99732.02;85923;1332;22485;-75
2022/04/23 10:15:28;;;;;;;;;;;;;;;12.85;55.45;99729.58;85984;1335;23078;-81
2022/04/23 10:17:33;;;;;;;;;;;;;;;12.76;55.40;99727.81;85949;1331;22648;-82
2022/04/23 10:19:40;;;;;;;;;;;;;;;12.66;55.50;99729.58;85973;1335;23183;-81
2022/04/23 10:21:53;;;;;;;;;;;;;;;12.56;55.85;99724.73;85956;1335;22490;-82
2022/04/23 10:24:10;;;;;;;;;;;;;;;12.53;56.26;99729.30;85980;1335;23117;-75
2022/04/23 10:26:37;;;;;;;;;;;;;;;12.50;56.47;99727.68;85963;1334;22501;-75
2022/04/23 10:28:45;;;;;;;;;;;;;;;12.48;56.41;99729.59;85971;1335;22569;-76
2022/04/23 10:31:08;;;;;;;;;;;;;;;12.40;56.24;99724.59;85984;1335;23164;-77
2022/04/23 10:33:28;;;;;;;;;;;;;;;12.30;56.42;99725.67;85822;1331;22527;-80
2022/04/23 10:35:35;;;;;;;;;;;;;;;12.23;56.61;99727.82;85962;1335;23378;-80
2022/04/23 10:37:42;;;;;;;;;;;;;;;12.16;56.44;99729.21;85899;1335;23107;-81
2022/04/23 10:40:12;;;;;;;;;;;;;;;12.11;56.74;99730.70;85980;1335;22492;-75
2022/04/23 10:42:17;;;;;;;;;;;;;;;12.02;56.83;99730.35;85961;1335;23142;-75
2022/04/23 10:44:25;;;;;;;;;;;;;;;11.94;57.02;99727.80;85970;1335;22486;-83
2022/04/23 10:46:46;;;;;;;;;;;;;;;11.86;56.86;99725.94;85975;1332;23094;-82
2022/04/23 10:48:54;;;;;;;;;;;;;;;11.80;57.02;99726.45;85976;1335;22512;-82
2022/04/23 10:51:04;;;;;;;;;;;;;;;11.77;57.41;99733.23;85968;1335;23202;-82
2022/04/23 10:53:11;;;;;;;;;;;;;;;11.70;57.10;99735.16;85969;1335;22441;-81
2022/04/23 10:55:31;;;;;;;;;;;;;;;11.62;57.22;99737.50;85963;1333;22526;-81
2022/04/23 10:58:00;;;;;;;;;;;;;;;11.53;57.47;99737.13;85721;1335;23180;-82
2022/04/23 11:00:24;;;;;;;;;;;;;;;11.45;57.34;99739.98;85985;1335;22485;-76
2022/04/23 11:02:34;;;;;;;;;;;;;;;11.36;57.64;99737.14;85888;1334;22511;-80
2022/04/23 11:12:32;;;;;;;;;;;;;;;11.39;58.62;99737.65;85844;1335;23212;-80
2022/04/23 11:14:47;;;;;;;;;;;;;;;11.52;58.66;99739.41;85973;1335;23029;-81
2022/04/23 11:16:55;;;;;;;;;;;;;;;11.64;58.58;99741.64;85953;1334;23180;-81
2022/04/23 11:19:00;;;;;;;;;;;;;;;11.71;58.40;99736.17;85973;1335;22425;-75
2022/04/23 11:21:11;;;;;;;;;;;;;;;11.74;57.97;99737.57;85963;1335;23176;-75
2022/04/23 11:23:30;;;;;;;;;;;;;;;11.75;57.94;99736.64;85956;1333;23094;-75
2022/04/23 11:25:38;;;;;;;;;;;;;;;11.72;57.62;99737.90;85951;1332;23259;-80
2022/04/23 11:27:48;;;;;;;;;;;;;;;11.68;57.89;99738.59;85955;1332;22639;-80